NCAR-RAP Real-Time Weather Data

Output produced by METARs form (08 May 2021  16:51 UTC)
found at http://weather.rap.ucar.edu/surface/
 
KABQ 081552Z 24011KT 10SM BKN240 19/M03 A2998 RMK AO2 SLP081 T01891028
KABQ 081452Z 19007KT 10SM BKN250 16/M07 A2999 RMK AO2 SLP085 T01611067 51007
KABQ 081352Z 22004KT 10SM OVC250 16/M06 A2999 RMK AO2 SLP081 T01561061
KABQ 081252Z 13007KT 10SM OVC250 12/M04 A2998 RMK AO2 SLP080 T01171039
KABQ 081152Z 27004KT 10SM BKN250 13/M03 A2996 RMK AO2 SLP073 70002 T01331033 10189 20106 53002
KABQ 081052Z 15006KT 10SM FEW250 11/01 A2996 RMK AO2 SLP078 T01060006
KABQ 080952Z 10004KT 10SM CLR 12/00 A2996 RMK AO2 SLP077 T01170000
KABQ 080852Z 00000KT 10SM CLR 13/01 A2995 RMK AO2 SLP085 T01330006 55001
KABQ 080752Z 17006KT 10SM CLR 14/02 A2995 RMK AO2 SLP073 T01440022
KABQ 080652Z 11006KT 10SM CLR 16/03 A2996 RMK AO2 SLP067 T01610028 402780161
KABQ 080552Z 00000KT 10SM CLR 18/04 A2996 RMK AO2 SLP066 T01830039 10278 20183 51016
KABQ 080452Z 34006KT 10SM CLR 20/05 A2995 RMK AO2 SLP059 T02000050
KABQ 080352Z 10011KT 10SM FEW140 21/04 A2993 RMK AO2 PK WND 09026/0321 SLP051 T02110039
KABQ 080252Z 08016KT 10SM FEW080 SCT160 22/04 A2991 RMK AO2 SLP044 T02220039 55006
KABQ 080152Z 33008KT 10SM FEW080 SCT160 25/03 A2990 RMK AO2 SLP040 T02500028
KABQ 080052Z 20009KT 10SM SCT080 SCT160 27/01 A2991 RMK AO2 SLP046 T02720011
KABQ 072352Z 18014KT 10SM SCT080 BKN160 28/02 A2993 RMK AO2 SLP052 60002 T02780017 10278 20178 56043
KABQ 072252Z 16015G24KT 10SM FEW080 SCT150 27/01 A2994 RMK AO2 PK WND 16031/2158 SLP054 T02720006
KABQ 072152Z 16024G34KT 10SM FEW090 SCT150 25/04 A3000 RMK AO2 PK WND 17034/2152 WSHFT 2051 RAE00 SLP076 P0000 T02500039
KABQ 072111Z 12015G21KT 10SM SCT042 SCT070 SCT100 21/09 A3003 RMK AO2 WSHFT 2051 RAE00 VCSH SE P0000 T02110089
KABQ 072052Z 13010KT 10SM -RA SCT080 BKN095 BKN110 19/10 A3008 RMK AO2 PK WND 31034/1953 LTG DSNT E RAB00 TSB1956E14B16E39 SLP115 VCSH SE P0002 60002 T01890100 55010
KABQ 072040Z 24006KT 9SM -RA BKN080 BKN095 19/09 A3009 RMK AO2 PK WND 31034/1953 LTG DSNT E RAB00 TSB1956E14B16E39 P0002 T01890089
KABQ 072002Z 32023G34KT 10SM -TSRA BKN070 BKN090CB 22/06 A3005 RMK AO2 PK WND 31034/1953 LTG DSNT SW AND W RAB00 TSB1956 OCNL LTGIC OHD TS OHD MOV NE P0000 T02170056
KABQ 071952Z 32022G39KT 10SM VCTS BKN095CB OVC120 23/03 A3006 RMK AO2 PK WND 32039/1950 LTG DSNT SW-N SLP102 OCNL LTGIC VC SW-NW TS SW-NW MOV NE T02280028
KABQ 071940Z 32020G34KT 10SM VCTS FEW090 BKN110CB OVC140 24/01 A3007 RMK AO2 PK WND 30034/1936 LTG DSNT N AND W OCNL LTGIC VC NW TS NW MOV NE T02390011
KABQ 071852Z 21013KT 10SM FEW090 BKN230 27/03 A3006 RMK AO2 LTG DSNT W SLP092 CB DSNT SW-NW T02720033
KABQ 071752Z 22006G16KT 10SM FEW080 FEW150 26/04 A3011 RMK AO2 SLP114 CB DSNT SW-NW HZ ALQDS T02610044 10267 20161 58017
KABQ 071652Z 21009G17KT 10SM FEW080 SCT130 24/04 A3016 RMK AO2 SLP131 HZ ALQDS T02440044
KABQ 071552Z 19014G25KT 10SM FEW070 FEW100 24/05 A3017 RMK AO2 SLP134 HZ ALQDS T02440050
KABQ 071452Z 20010KT 10SM FEW100 23/05 A3017 RMK AO2 SLP133 HZ ALQDS T02280050 50003
KABQ 071352Z 17009KT 8SM FEW100 FEW170 21/05 A3018 RMK AO2 SLP134 HZ ALQDS T02060050
KABQ 071252Z 15008KT 8SM FEW110 FEW150 17/04 A3017 RMK AO2 SLP137 HZ NE-SE-S T01720044
KABQ 071152Z 15006KT 10SM FEW000 FEW110 SCT150 17/04 A3016 RMK AO2 SLP133 VIRGA E FU FEW000 MTNS OBSC SE T01720044 10217 20167 51002
KABQ 071149Z 15005KT 10SM FEW000 FEW110 SCT150 17/04 A3016 RMK AO2 VIRGA E FU FEW000 MTNS OBSC SE
KABQ 071052Z 16006KT 10SM FEW050 SCT110 SCT170 19/04 A3016 RMK AO2 SLP131 VIRGA OHD T01890044
KABQ 070952Z 27006KT 10SM FEW050 SCT130 BKN170 20/04 A3016 RMK AO2 SLP132 T02000044
KABQ 070852Z 36007KT 10SM FEW090 BKN130 BKN170 19/04 A3015 RMK AO2 SLP131 T01940039 55004
KABQ 070752Z 17016KT 10SM FEW090 SCT130 SCT180 21/04 A3015 RMK AO2 PK WND 17027/0721 SLP128 T02110039
KABQ 070652Z 17017KT 10SM FEW090 SCT130 BKN180 22/02 A3017 RMK AO2 SLP134 T02170022 402830133
KABQ 070552Z 11008KT 10SM FEW140 SCT200 20/03 A3017 RMK AO2 SLP142 T02000028 10278 20200 51005
KABQ 070452Z 09013KT 10SM FEW140 SCT200 21/03 A3016 RMK AO2 SLP140 T02110033
KABQ 070352Z 09014KT 10SM FEW140 SCT200 22/04 A3016 RMK AO2 SLP142 T02220039
KABQ 070252Z 11005KT 10SM SCT150 BKN200 24/M04 A3015 RMK AO2 SLP138 T02441039 55001
KABQ 070152Z 16004KT 10SM SCT150 SCT180 27/M04 A3014 RMK AO2 SLP134 T02671044
KABQ 070052Z 20008KT 10SM SCT130 SCT200 27/M06 A3014 RMK AO2 SLP134 T02721056
KABQ 062352Z 19006KT 10SM FEW070 SCT130 SCT200 28/M06 A3016 RMK AO2 SLP137 T02781056 10283 20217 56027
KABQ 062252Z VRB04KT 10SM FEW070 FEW110 27/M04 A3018 RMK AO2 SLP146 T02721044
KABQ 062152Z 23006KT 10SM FEW110 27/M02 A3021 RMK AO2 SLP159 T02671022
KABQ 062052Z 00000KT 10SM FEW110 26/M02 A3025 RMK AO2 SLP172 T02611017 58024
KABQ 061952Z 18010G15KT 10SM FEW100 24/M01 A3028 RMK AO2 SLP182 T02441006
KABQ 061852Z 17005KT 10SM FEW120 24/01 A3031 RMK AO2 SLP190 T02390011
KABQ 061752Z 11005G14KT 10SM CLR 22/02 A3033 RMK AO2 SLP204 T02170017 10222 20133 58005
KABQ 061652Z 08012G19KT 10SM CLR 21/02 A3034 RMK AO2 SLP204 T02060022